sensor_id;sensor_type;location;lat;lon;timestamp;temperature;humidity
55634;DHT22;41504;53.162;6.788;2024-03-02T00:00:26;7.70;99.90
55634;DHT22;41504;53.162;6.788;2024-03-02T00:02:52;7.70;99.90
55634;DHT22;41504;53.162;6.788;2024-03-02T00:05:19;7.70;99.90
55634;DHT22;41504;53.162;6.788;2024-03-02T00:07:52;7.70;99.90
55634;DHT22;41504;53.162;6.788;2024-03-02T00:10:20;7.60;99.90
55634;DHT22;41504;53.162;6.788;2024-03-02T00:12:48;7.70;99.90
55634;DHT22;41504;53.162;6.788;2024-03-02T00:15:45;7.60;99.90
55634;DHT22;41504;53.162;6.788;2024-03-02T00:18:13;7.60;99.90
55634;DHT22;41504;53.162;6.788;2024-03-02T00:20:40;7.60;99.90
55634;DHT22;41504;53.162;6.788;2024-03-02T00:23:07;7.60;99.90
55634;DHT22;41504;53.162;6.788;2024-03-02T00:25:40;7.60;99.90
55634;DHT22;41504;53.162;6.788;2024-03-02T00:28:48;7.70;99.90
55634;DHT22;41504;53.162;6.788;2024-03-02T00:31:01;7.60;99.90
55634;DHT22;41504;53.162;6.788;2024-03-02T00:33:34;7.60;99.90
55634;DHT22;41504;53.162;6.788;2024-03-02T00:36:03;7.50;99.90
55634;DHT22;41504;53.162;6.788;2024-03-02T00:38:33;7.50;99.90
55634;DHT22;41504;53.162;6.788;2024-03-02T00:41:04;7.50;99.90
55634;DHT22;41504;53.162;6.788;2024-03-02T00:43:42;7.50;99.90
55634;DHT22;41504;53.162;6.788;2024-03-02T00:46:13;7.50;99.90
55634;DHT22;41504;53.162;6.788;2024-03-02T00:48:54;7.40;99.90
55634;DHT22;41504;53.162;6.788;2024-03-02T00:51:29;7.40;99.90
55634;DHT22;41504;53.162;6.788;2024-03-02T00:53:57;7.30;99.90
55634;DHT22;41504;53.162;6.788;2024-03-02T00:56:24;7.30;99.90
55634;DHT22;41504;53.162;6.788;2024-03-02T00:58:50;7.30;99.90
55634;DHT22;41504;53.162;6.788;2024-03-02T01:01:17;7.30;99.90
55634;DHT22;41504;53.162;6.788;2024-03-02T01:03:43;7.30;99.90
55634;DHT22;41504;53.162;6.788;2024-03-02T01:06:09;7.30;99.90
55634;DHT22;41504;53.162;6.788;2024-03-02T01:08:35;7.30;99.90
55634;DHT22;41504;53.162;6.788;2024-03-02T01:11:01;7.40;99.90
55634;DHT22;41504;53.162;6.788;2024-03-02T01:13:27;7.40;99.90
55634;DHT22;41504;53.162;6.788;2024-03-02T01:15:53;7.40;99.90
55634;DHT22;41504;53.162;6.788;2024-03-02T01:18:19;7.50;99.90
55634;DHT22;41504;53.162;6.788;2024-03-02T01:20:45;7.50;99.90
55634;DHT22;41504;53.162;6.788;2024-03-02T01:23:14;7.50;99.90
55634;DHT22;41504;53.162;6.788;2024-03-02T01:25:40;7.70;99.90
55634;DHT22;41504;53.162;6.788;2024-03-02T01:28:06;7.60;99.90
55634;DHT22;41504;53.162;6.788;2024-03-02T01:30:31;7.60;99.90
55634;DHT22;41504;53.162;6.788;2024-03-02T01:32:57;7.60;99.90
55634;DHT22;41504;53.162;6.788;2024-03-02T01:35:25;7.60;99.90
55634;DHT22;41504;53.162;6.788;2024-03-02T01:37:52;7.60;99.90
55634;DHT22;41504;53.162;6.788;2024-03-02T01:40:17;7.60;99.90
55634;DHT22;41504;53.162;6.788;2024-03-02T01:42:43;7.60;99.90
55634;DHT22;41504;53.162;6.788;2024-03-02T01:45:09;7.60;99.90
55634;DHT22;41504;53.162;6.788;2024-03-02T01:47:35;7.60;99.90
55634;DHT22;41504;53.162;6.788;2024-03-02T01:50:01;7.60;99.90
55634;DHT22;41504;53.162;6.788;2024-03-02T01:52:27;7.60;99.90
55634;DHT22;41504;53.162;6.788;2024-03-02T01:54:53;7.60;99.90
55634;DHT22;41504;53.162;6.788;2024-03-02T01:57:19;7.60;99.90
55634;DHT22;41504;53.162;6.788;2024-03-02T01:59:46;7.60;99.90
55634;DHT22;41504;53.162;6.788;2024-03-02T02:02:14;7.60;99.90
55634;DHT22;41504;53.162;6.788;2024-03-02T02:04:40;7.60;99.90
55634;DHT22;41504;53.162;6.788;2024-03-02T02:07:06;7.60;99.90
55634;DHT22;41504;53.162;6.788;2024-03-02T02:09:32;7.60;99.90
55634;DHT22;41504;53.162;6.788;2024-03-02T02:11:58;7.60;99.90
55634;DHT22;41504;53.162;6.788;2024-03-02T02:14:24;7.60;99.90
55634;DHT22;41504;53.162;6.788;2024-03-02T02:16:50;7.60;99.90
55634;DHT22;41504;53.162;6.788;2024-03-02T02:19:16;7.60;99.90
55634;DHT22;41504;53.162;6.788;2024-03-02T02:21:44;7.60;99.90
55634;DHT22;41504;53.162;6.788;2024-03-02T02:24:10;7.60;99.90
55634;DHT22;41504;53.162;6.788;2024-03-02T02:26:38;7.60;99.90
55634;DHT22;41504;53.162;6.788;2024-03-02T02:29:04;7.60;99.90
55634;DHT22;41504;53.162;6.788;2024-03-02T02:31:37;7.60;99.90
55634;DHT22;41504;53.162;6.788;2024-03-02T02:34:03;7.60;99.90
55634;DHT22;41504;53.162;6.788;2024-03-02T02:36:29;7.60;99.90
55634;DHT22;41504;53.162;6.788;2024-03-02T02:38:55;7.60;99.90
55634;DHT22;41504;53.162;6.788;2024-03-02T02:41:21;7.60;99.90
55634;DHT22;41504;53.162;6.788;2024-03-02T02:43:47;7.60;99.90
55634;DHT22;41504;53.162;6.788;2024-03-02T02:46:12;7.60;99.90
55634;DHT22;41504;53.162;6.788;2024-03-02T02:48:38;7.60;99.90
55634;DHT22;41504;53.162;6.788;2024-03-02T02:51:04;7.60;99.90
55634;DHT22;41504;53.162;6.788;2024-03-02T02:53:35;7.60;99.90
55634;DHT22;41504;53.162;6.788;2024-03-02T02:56:08;7.60;99.90
55634;DHT22;41504;53.162;6.788;2024-03-02T02:58:34;7.60;99.90
55634;DHT22;41504;53.162;6.788;2024-03-02T03:01:00;7.60;99.90
55634;DHT22;41504;53.162;6.788;2024-03-02T03:03:29;7.70;99.90
55634;DHT22;41504;53.162;6.788;2024-03-02T03:05:57;7.70;99.90
55634;DHT22;41504;53.162;6.788;2024-03-02T03:08:23;7.70;99.90
55634;DHT22;41504;53.162;6.788;2024-03-02T03:10:49;7.70;99.90
55634;DHT22;41504;53.162;6.788;2024-03-02T03:13:17;7.70;99.90
55634;DHT22;41504;53.162;6.788;2024-03-02T03:15:43;7.80;99.90
55634;DHT22;41504;53.162;6.788;2024-03-02T03:18:09;7.70;99.90
55634;DHT22;41504;53.162;6.788;2024-03-02T03:20:37;7.80;99.90
55634;DHT22;41504;53.162;6.788;2024-03-02T03:23:03;7.90;99.90
55634;DHT22;41504;53.162;6.788;2024-03-02T03:25:30;7.90;99.90
55634;DHT22;41504;53.162;6.788;2024-03-02T03:27:58;7.90;99.90
55634;DHT22;41504;53.162;6.788;2024-03-02T03:30:24;7.90;99.90
55634;DHT22;41504;53.162;6.788;2024-03-02T03:32:50;7.90;99.90
55634;DHT22;41504;53.162;6.788;2024-03-02T03:35:15;7.90;99.90
55634;DHT22;41504;53.162;6.788;2024-03-02T03:37:41;8.00;99.90
55634;DHT22;41504;53.162;6.788;2024-03-02T03:40:08;8.00;99.90
55634;DHT22;41504;53.162;6.788;2024-03-02T03:42:36;7.90;99.90
55634;DHT22;41504;53.162;6.788;2024-03-02T03:45:03;7.90;99.90
55634;DHT22;41504;53.162;6.788;2024-03-02T03:47:29;8.00;99.90
55634;DHT22;41504;53.162;6.788;2024-03-02T03:49:56;8.00;99.90
55634;DHT22;41504;53.162;6.788;2024-03-02T03:52:22;7.90;99.90
55634;DHT22;41504;53.162;6.788;2024-03-02T03:54:47;8.00;99.90
55634;DHT22;41504;53.162;6.788;2024-03-02T03:57:13;7.90;99.90
55634;DHT22;41504;53.162;6.788;2024-03-02T03:59:39;7.90;99.90
55634;DHT22;41504;53.162;6.788;2024-03-02T04:02:04;8.00;99.90
55634;DHT22;41504;53.162;6.788;2024-03-02T04:04:30;8.00;99.90
55634;DHT22;41504;53.162;6.788;2024-03-02T04:06:56;8.00;99.90
55634;DHT22;41504;53.162;6.788;2024-03-02T04:09:21;8.00;99.90
55634;DHT22;41504;53.162;6.788;2024-03-02T04:11:47;8.00;99.90
55634;DHT22;41504;53.162;6.788;2024-03-02T04:14:13;8.00;99.90
55634;DHT22;41504;53.162;6.788;2024-03-02T04:16:39;8.00;99.90
55634;DHT22;41504;53.162;6.788;2024-03-02T04:19:04;8.00;99.90
55634;DHT22;41504;53.162;6.788;2024-03-02T04:21:30;8.00;99.90
55634;DHT22;41504;53.162;6.788;2024-03-02T04:23:56;7.90;99.90
55634;DHT22;41504;53.162;6.788;2024-03-02T04:26:28;7.90;99.90
55634;DHT22;41504;53.162;6.788;2024-03-02T04:28:53;7.90;99.90
55634;DHT22;41504;53.162;6.788;2024-03-02T04:31:20;7.90;99.90
55634;DHT22;41504;53.162;6.788;2024-03-02T04:33:46;7.90;99.90
55634;DHT22;41504;53.162;6.788;2024-03-02T04:36:11;7.90;99.90
55634;DHT22;41504;53.162;6.788;2024-03-02T04:38:40;7.90;99.90
55634;DHT22;41504;53.162;6.788;2024-03-02T04:41:06;7.90;99.90
55634;DHT22;41504;53.162;6.788;2024-03-02T04:43:32;7.90;99.90
55634;DHT22;41504;53.162;6.788;2024-03-02T04:45:59;7.90;99.90
55634;DHT22;41504;53.162;6.788;2024-03-02T04:48:25;7.90;99.90
55634;DHT22;41504;53.162;6.788;2024-03-02T04:50:51;7.90;99.90
55634;DHT22;41504;53.162;6.788;2024-03-02T04:53:16;7.90;99.90
55634;DHT22;41504;53.162;6.788;2024-03-02T04:55:42;7.90;99.90
55634;DHT22;41504;53.162;6.788;2024-03-02T04:58:08;7.90;99.90
55634;DHT22;41504;53.162;6.788;2024-03-02T05:00:34;7.90;99.90
55634;DHT22;41504;53.162;6.788;2024-03-02T05:02:59;7.90;99.90
55634;DHT22;41504;53.162;6.788;2024-03-02T05:05:25;7.90;99.90
55634;DHT22;41504;53.162;6.788;2024-03-02T05:07:52;7.90;99.90
55634;DHT22;41504;53.162;6.788;2024-03-02T05:10:17;7.90;99.90
55634;DHT22;41504;53.162;6.788;2024-03-02T05:12:43;7.90;99.90
55634;DHT22;41504;53.162;6.788;2024-03-02T05:15:15;7.90;99.90
55634;DHT22;41504;53.162;6.788;2024-03-02T05:17:42;7.90;99.90
55634;DHT22;41504;53.162;6.788;2024-03-02T05:20:11;7.90;99.90
55634;DHT22;41504;53.162;6.788;2024-03-02T05:22:37;7.90;99.90
55634;DHT22;41504;53.162;6.788;2024-03-02T05:25:04;7.90;99.90
55634;DHT22;41504;53.162;6.788;2024-03-02T05:27:30;7.90;99.90
55634;DHT22;41504;53.162;6.788;2024-03-02T05:29:56;7.90;99.90
55634;DHT22;41504;53.162;6.788;2024-03-02T05:32:23;7.80;99.90
55634;DHT22;41504;53.162;6.788;2024-03-02T05:34:48;7.90;99.90
55634;DHT22;41504;53.162;6.788;2024-03-02T05:37:16;7.90;99.90
55634;DHT22;41504;53.162;6.788;2024-03-02T05:39:42;7.90;99.90
55634;DHT22;41504;53.162;6.788;2024-03-02T05:42:09;7.90;99.90
55634;DHT22;41504;53.162;6.788;2024-03-02T05:44:35;7.80;99.90
55634;DHT22;41504;53.162;6.788;2024-03-02T05:47:01;7.80;99.90
55634;DHT22;41504;53.162;6.788;2024-03-02T05:49:27;7.80;99.90
55634;DHT22;41504;53.162;6.788;2024-03-02T05:51:52;7.70;99.90
55634;DHT22;41504;53.162;6.788;2024-03-02T05:54:18;7.70;99.90
55634;DHT22;41504;53.162;6.788;2024-03-02T05:56:44;7.70;99.90
55634;DHT22;41504;53.162;6.788;2024-03-02T05:59:09;7.70;99.90
55634;DHT22;41504;53.162;6.788;2024-03-02T06:01:47;7.60;99.90
55634;DHT22;41504;53.162;6.788;2024-03-02T06:04:16;7.60;99.90
55634;DHT22;41504;53.162;6.788;2024-03-02T06:06:42;7.60;99.90
55634;DHT22;41504;53.162;6.788;2024-03-02T06:09:08;7.70;99.90
55634;DHT22;41504;53.162;6.788;2024-03-02T06:11:38;7.60;99.90
55634;DHT22;41504;53.162;6.788;2024-03-02T06:14:04;7.60;99.90
55634;DHT22;41504;53.162;6.788;2024-03-02T06:16:30;7.60;99.90
55634;DHT22;41504;53.162;6.788;2024-03-02T06:18:56;7.60;99.90
55634;DHT22;41504;53.162;6.788;2024-03-02T06:21:25;7.60;99.90
55634;DHT22;41504;53.162;6.788;2024-03-02T06:23:51;7.60;99.90
55634;DHT22;41504;53.162;6.788;2024-03-02T06:26:17;7.60;99.90
55634;DHT22;41504;53.162;6.788;2024-03-02T06:28:44;7.60;99.90
55634;DHT22;41504;53.162;6.788;2024-03-02T06:31:09;7.60;99.90
55634;DHT22;41504;53.162;6.788;2024-03-02T06:33:35;7.60;99.90
55634;DHT22;41504;53.162;6.788;2024-03-02T06:36:01;7.60;99.90
55634;DHT22;41504;53.162;6.788;2024-03-02T06:38:27;7.50;99.90
55634;DHT22;41504;53.162;6.788;2024-03-02T06:40:53;7.50;99.90
55634;DHT22;41504;53.162;6.788;2024-03-02T06:43:19;7.50;99.90
55634;DHT22;41504;53.162;6.788;2024-03-02T06:45:49;7.40;99.90
55634;DHT22;41504;53.162;6.788;2024-03-02T06:48:16;7.30;99.90
55634;DHT22;41504;53.162;6.788;2024-03-02T06:50:46;7.40;99.90
55634;DHT22;41504;53.162;6.788;2024-03-02T06:53:12;7.30;99.90
55634;DHT22;41504;53.162;6.788;2024-03-02T06:55:38;7.30;99.90
55634;DHT22;41504;53.162;6.788;2024-03-02T06:58:04;7.30;99.90
55634;DHT22;41504;53.162;6.788;2024-03-02T07:00:30;7.30;99.90
55634;DHT22;41504;53.162;6.788;2024-03-02T07:02:56;7.30;99.90
55634;DHT22;41504;53.162;6.788;2024-03-02T07:05:21;7.30;99.90
55634;DHT22;41504;53.162;6.788;2024-03-02T07:07:47;7.20;99.90
55634;DHT22;41504;53.162;6.788;2024-03-02T07:10:13;7.20;99.90
55634;DHT22;41504;53.162;6.788;2024-03-02T07:12:39;7.20;99.90
55634;DHT22;41504;53.162;6.788;2024-03-02T07:15:05;7.20;99.90
55634;DHT22;41504;53.162;6.788;2024-03-02T07:17:31;7.20;99.90
55634;DHT22;41504;53.162;6.788;2024-03-02T07:19:57;7.30;99.90
55634;DHT22;41504;53.162;6.788;2024-03-02T07:22:23;7.30;99.90
55634;DHT22;41504;53.162;6.788;2024-03-02T07:24:49;7.40;99.90
55634;DHT22;41504;53.162;6.788;2024-03-02T07:27:16;7.40;99.90
55634;DHT22;41504;53.162;6.788;2024-03-02T07:29:42;7.40;99.90
55634;DHT22;41504;53.162;6.788;2024-03-02T07:32:09;7.50;99.90
55634;DHT22;41504;53.162;6.788;2024-03-02T07:34:35;7.50;99.90
55634;DHT22;41504;53.162;6.788;2024-03-02T07:37:01;7.60;99.90
55634;DHT22;41504;53.162;6.788;2024-03-02T07:39:27;7.60;99.90
55634;DHT22;41504;53.162;6.788;2024-03-02T07:41:53;7.60;99.90
55634;DHT22;41504;53.162;6.788;2024-03-02T07:44:19;7.60;99.90
55634;DHT22;41504;53.162;6.788;2024-03-02T07:46:46;7.70;99.90
55634;DHT22;41504;53.162;6.788;2024-03-02T07:49:12;7.80;99.90
55634;DHT22;41504;53.162;6.788;2024-03-02T07:51:41;7.80;99.90
55634;DHT22;41504;53.162;6.788;2024-03-02T07:54:07;7.80;99.90
55634;DHT22;41504;53.162;6.788;2024-03-02T07:56:33;7.90;99.90
55634;DHT22;41504;53.162;6.788;2024-03-02T07:59:00;7.90;99.90
55634;DHT22;41504;53.162;6.788;2024-03-02T08:01:36;7.90;99.90
55634;DHT22;41504;53.162;6.788;2024-03-02T08:04:02;8.00;99.90
55634;DHT22;41504;53.162;6.788;2024-03-02T08:06:31;8.00;99.90
55634;DHT22;41504;53.162;6.788;2024-03-02T08:08:58;8.00;99.90
55634;DHT22;41504;53.162;6.788;2024-03-02T08:11:24;8.00;99.90
55634;DHT22;41504;53.162;6.788;2024-03-02T08:13:50;8.00;99.90
55634;DHT22;41504;53.162;6.788;2024-03-02T08:16:16;8.00;99.90
55634;DHT22;41504;53.162;6.788;2024-03-02T08:18:44;8.00;99.90
55634;DHT22;41504;53.162;6.788;2024-03-02T08:21:10;8.00;99.90
55634;DHT22;41504;53.162;6.788;2024-03-02T08:23:35;8.00;99.90
55634;DHT22;41504;53.162;6.788;2024-03-02T08:26:03;8.10;99.90
55634;DHT22;41504;53.162;6.788;2024-03-02T08:28:29;8.10;99.90
55634;DHT22;41504;53.162;6.788;2024-03-02T08:30:55;8.10;99.90
55634;DHT22;41504;53.162;6.788;2024-03-02T08:33:22;8.10;99.90
55634;DHT22;41504;53.162;6.788;2024-03-02T08:35:48;8.20;99.90
55634;DHT22;41504;53.162;6.788;2024-03-02T08:38:13;8.20;99.90
55634;DHT22;41504;53.162;6.788;2024-03-02T08:40:39;8.20;99.90
55634;DHT22;41504;53.162;6.788;2024-03-02T08:43:05;8.20;99.90
55634;DHT22;41504;53.162;6.788;2024-03-02T08:45:33;8.20;99.90
55634;DHT22;41504;53.162;6.788;2024-03-02T08:48:00;8.20;99.90
55634;DHT22;41504;53.162;6.788;2024-03-02T08:50:26;8.20;99.90
55634;DHT22;41504;53.162;6.788;2024-03-02T08:52:51;8.20;99.90
55634;DHT22;41504;53.162;6.788;2024-03-02T08:55:17;8.20;99.90
55634;DHT22;41504;53.162;6.788;2024-03-02T08:57:43;8.20;99.90
55634;DHT22;41504;53.162;6.788;2024-03-02T09:00:09;8.20;99.90
55634;DHT22;41504;53.162;6.788;2024-03-02T09:02:35;8.20;99.90
55634;DHT22;41504;53.162;6.788;2024-03-02T09:05:01;8.30;99.90
55634;DHT22;41504;53.162;6.788;2024-03-02T09:07:27;8.30;99.90
55634;DHT22;41504;53.162;6.788;2024-03-02T09:09:53;8.40;99.90
55634;DHT22;41504;53.162;6.788;2024-03-02T09:12:19;8.40;99.90
55634;DHT22;41504;53.162;6.788;2024-03-02T09:14:46;8.40;99.90
55634;DHT22;41504;53.162;6.788;2024-03-02T09:17:12;8.40;99.90
55634;DHT22;41504;53.162;6.788;2024-03-02T09:19:39;8.50;99.90
55634;DHT22;41504;53.162;6.788;2024-03-02T09:22:05;8.50;99.90
55634;DHT22;41504;53.162;6.788;2024-03-02T09:24:31;8.60;99.90
55634;DHT22;41504;53.162;6.788;2024-03-02T09:26:59;8.60;99.90
55634;DHT22;41504;53.162;6.788;2024-03-02T09:29:24;8.70;99.90
55634;DHT22;41504;53.162;6.788;2024-03-02T09:31:50;8.80;99.90
55634;DHT22;41504;53.162;6.788;2024-03-02T09:34:16;8.90;99.90
55634;DHT22;41504;53.162;6.788;2024-03-02T09:36:43;9.00;99.90
55634;DHT22;41504;53.162;6.788;2024-03-02T09:39:09;9.00;99.90
55634;DHT22;41504;53.162;6.788;2024-03-02T09:41:36;9.10;99.90
55634;DHT22;41504;53.162;6.788;2024-03-02T09:44:03;9.20;99.90
55634;DHT22;41504;53.162;6.788;2024-03-02T09:46:28;9.30;99.90
55634;DHT22;41504;53.162;6.788;2024-03-02T09:48:54;9.30;99.90
55634;DHT22;41504;53.162;6.788;2024-03-02T09:51:20;9.40;99.90
55634;DHT22;41504;53.162;6.788;2024-03-02T09:53:47;9.30;99.90
55634;DHT22;41504;53.162;6.788;2024-03-02T09:56:12;9.40;99.90
55634;DHT22;41504;53.162;6.788;2024-03-02T09:58:39;9.40;99.90
55634;DHT22;41504;53.162;6.788;2024-03-02T10:01:06;9.50;99.90
55634;DHT22;41504;53.162;6.788;2024-03-02T10:03:33;9.50;99.90
55634;DHT22;41504;53.162;6.788;2024-03-02T10:06:19;9.60;99.90
55634;DHT22;41504;53.162;6.788;2024-03-02T10:08:45;9.70;99.90
55634;DHT22;41504;53.162;6.788;2024-03-02T10:11:11;9.70;99.90
55634;DHT22;41504;53.162;6.788;2024-03-02T10:13:36;9.80;99.90
55634;DHT22;41504;53.162;6.788;2024-03-02T10:16:12;9.90;99.90
55634;DHT22;41504;53.162;6.788;2024-03-02T10:18:37;9.90;99.90
55634;DHT22;41504;53.162;6.788;2024-03-02T10:21:13;9.90;99.90
55634;DHT22;41504;53.162;6.788;2024-03-02T10:23:39;9.90;99.90
55634;DHT22;41504;53.162;6.788;2024-03-02T10:26:18;10.00;99.90
55634;DHT22;41504;53.162;6.788;2024-03-02T10:28:47;10.00;99.90
55634;DHT22;41504;53.162;6.788;2024-03-02T10:31:13;10.00;99.90
55634;DHT22;41504;53.162;6.788;2024-03-02T10:33:40;10.00;99.90
55634;DHT22;41504;53.162;6.788;2024-03-02T10:36:06;10.10;99.90
55634;DHT22;41504;53.162;6.788;2024-03-02T10:38:31;10.10;99.90
55634;DHT22;41504;53.162;6.788;2024-03-02T10:40:58;10.20;99.90
55634;DHT22;41504;53.162;6.788;2024-03-02T10:43:25;10.30;99.90
55634;DHT22;41504;53.162;6.788;2024-03-02T10:45:52;10.30;99.90
55634;DHT22;41504;53.162;6.788;2024-03-02T10:48:19;10.20;99.90
55634;DHT22;41504;53.162;6.788;2024-03-02T10:50:46;10.20;99.90
55634;DHT22;41504;53.162;6.788;2024-03-02T10:53:12;10.20;99.90
55634;DHT22;41504;53.162;6.788;2024-03-02T10:55:38;10.30;99.90
55634;DHT22;41504;53.162;6.788;2024-03-02T10:58:04;10.40;99.90
55634;DHT22;41504;53.162;6.788;2024-03-02T11:00:33;10.50;99.90
55634;DHT22;41504;53.162;6.788;2024-03-02T11:03:07;10.60;99.90
55634;DHT22;41504;53.162;6.788;2024-03-02T11:05:44;10.70;99.90
55634;DHT22;41504;53.162;6.788;2024-03-02T11:08:17;10.60;99.90
55634;DHT22;41504;53.162;6.788;2024-03-02T11:10:52;10.60;99.90
55634;DHT22;41504;53.162;6.788;2024-03-02T11:13:33;10.70;99.90
55634;DHT22;41504;53.162;6.788;2024-03-02T11:16:05;10.70;99.90
55634;DHT22;41504;53.162;6.788;2024-03-02T11:18:32;10.70;99.90
55634;DHT22;41504;53.162;6.788;2024-03-02T11:20:59;10.80;99.90
55634;DHT22;41504;53.162;6.788;2024-03-02T11:23:35;10.80;99.90
55634;DHT22;41504;53.162;6.788;2024-03-02T11:26:30;10.80;99.90
55634;DHT22;41504;53.162;6.788;2024-03-02T11:29:06;10.90;99.90
55634;DHT22;41504;53.162;6.788;2024-03-02T11:31:58;11.00;99.90
55634;DHT22;41504;53.162;6.788;2024-03-02T11:34:33;11.20;99.90
55634;DHT22;41504;53.162;6.788;2024-03-02T11:37:03;11.20;99.90
55634;DHT22;41504;53.162;6.788;2024-03-02T11:39:29;11.20;99.90
55634;DHT22;41504;53.162;6.788;2024-03-02T11:41:56;11.30;99.90
55634;DHT22;41504;53.162;6.788;2024-03-02T11:44:25;11.30;99.90
55634;DHT22;41504;53.162;6.788;2024-03-02T11:46:59;11.40;99.90
55634;DHT22;41504;53.162;6.788;2024-03-02T11:49:41;11.50;99.90
55634;DHT22;41504;53.162;6.788;2024-03-02T11:52:09;11.60;99.90
55634;DHT22;41504;53.162;6.788;2024-03-02T11:54:37;11.70;99.90
55634;DHT22;41504;53.162;6.788;2024-03-02T11:57:06;11.70;99.90
55634;DHT22;41504;53.162;6.788;2024-03-02T11:59:32;11.70;99.90
55634;DHT22;41504;53.162;6.788;2024-03-02T12:01:58;11.70;99.90
55634;DHT22;41504;53.162;6.788;2024-03-02T12:04:26;11.70;99.90
55634;DHT22;41504;53.162;6.788;2024-03-02T12:06:59;11.80;99.90
55634;DHT22;41504;53.162;6.788;2024-03-02T12:09:28;11.80;99.90
55634;DHT22;41504;53.162;6.788;2024-03-02T12:12:06;11.90;99.90
55634;DHT22;41504;53.162;6.788;2024-03-02T12:14:34;11.90;99.90
55634;DHT22;41504;53.162;6.788;2024-03-02T12:17:00;11.90;99.90
55634;DHT22;41504;53.162;6.788;2024-03-02T12:19:26;11.90;99.90
55634;DHT22;41504;53.162;6.788;2024-03-02T12:21:53;11.90;99.90
55634;DHT22;41504;53.162;6.788;2024-03-02T12:24:21;11.90;99.90
55634;DHT22;41504;53.162;6.788;2024-03-02T12:26:46;12.00;99.90
55634;DHT22;41504;53.162;6.788;2024-03-02T12:29:14;12.00;99.90
55634;DHT22;41504;53.162;6.788;2024-03-02T12:31:41;12.00;99.60
55634;DHT22;41504;53.162;6.788;2024-03-02T12:34:08;11.90;99.90
55634;DHT22;41504;53.162;6.788;2024-03-02T12:36:41;12.00;99.80
55634;DHT22;41504;53.162;6.788;2024-03-02T12:39:10;12.10;99.90
55634;DHT22;41504;53.162;6.788;2024-03-02T12:41:39;12.20;98.00
55634;DHT22;41504;53.162;6.788;2024-03-02T12:44:05;12.30;99.30
55634;DHT22;41504;53.162;6.788;2024-03-02T12:46:34;12.40;99.00
55634;DHT22;41504;53.162;6.788;2024-03-02T12:49:09;12.40;98.50
55634;DHT22;41504;53.162;6.788;2024-03-02T12:51:37;12.40;98.40
55634;DHT22;41504;53.162;6.788;2024-03-02T12:54:03;12.20;98.60
55634;DHT22;41504;53.162;6.788;2024-03-02T12:56:30;12.20;99.20
55634;DHT22;41504;53.162;6.788;2024-03-02T12:58:56;12.20;98.70
55634;DHT22;41504;53.162;6.788;2024-03-02T13:01:23;12.30;98.50
55634;DHT22;41504;53.162;6.788;2024-03-02T13:03:50;12.30;98.20
55634;DHT22;41504;53.162;6.788;2024-03-02T13:06:17;12.30;98.70
55634;DHT22;41504;53.162;6.788;2024-03-02T13:08:44;12.30;98.80
55634;DHT22;41504;53.162;6.788;2024-03-02T13:11:10;12.40;98.70
55634;DHT22;41504;53.162;6.788;2024-03-02T13:13:36;12.50;97.80
55634;DHT22;41504;53.162;6.788;2024-03-02T13:16:04;12.60;97.20
55634;DHT22;41504;53.162;6.788;2024-03-02T13:18:30;12.60;97.20
55634;DHT22;41504;53.162;6.788;2024-03-02T13:20:56;12.70;96.70
55634;DHT22;41504;53.162;6.788;2024-03-02T13:23:22;12.70;96.50
55634;DHT22;41504;53.162;6.788;2024-03-02T13:25:48;12.60;97.10
55634;DHT22;41504;53.162;6.788;2024-03-02T13:28:13;12.50;97.40
55634;DHT22;41504;53.162;6.788;2024-03-02T13:30:39;12.60;97.20
55634;DHT22;41504;53.162;6.788;2024-03-02T13:33:05;12.60;97.10
55634;DHT22;41504;53.162;6.788;2024-03-02T13:35:31;12.60;97.10
55634;DHT22;41504;53.162;6.788;2024-03-02T13:37:56;12.70;96.90
55634;DHT22;41504;53.162;6.788;2024-03-02T13:40:22;12.70;96.60
55634;DHT22;41504;53.162;6.788;2024-03-02T13:42:49;12.80;96.80
55634;DHT22;41504;53.162;6.788;2024-03-02T13:45:17;12.90;96.10
55634;DHT22;41504;53.162;6.788;2024-03-02T13:47:44;13.00;96.00
55634;DHT22;41504;53.162;6.788;2024-03-02T13:50:09;13.10;96.10
55634;DHT22;41504;53.162;6.788;2024-03-02T13:52:35;13.10;95.10
55634;DHT22;41504;53.162;6.788;2024-03-02T13:55:01;13.20;93.90
55634;DHT22;41504;53.162;6.788;2024-03-02T13:57:27;13.10;93.40
55634;DHT22;41504;53.162;6.788;2024-03-02T13:59:53;13.10;93.10
55634;DHT22;41504;53.162;6.788;2024-03-02T14:02:20;13.10;93.60
55634;DHT22;41504;53.162;6.788;2024-03-02T14:04:48;13.20;93.60
55634;DHT22;41504;53.162;6.788;2024-03-02T14:07:15;13.20;92.80
55634;DHT22;41504;53.162;6.788;2024-03-02T14:09:40;13.20;91.90
55634;DHT22;41504;53.162;6.788;2024-03-02T14:12:07;13.10;91.70
55634;DHT22;41504;53.162;6.788;2024-03-02T14:14:32;13.00;91.30
55634;DHT22;41504;53.162;6.788;2024-03-02T14:16:59;12.90;91.70
55634;DHT22;41504;53.162;6.788;2024-03-02T14:19:31;12.80;92.60
55634;DHT22;41504;53.162;6.788;2024-03-02T14:21:57;12.80;93.30
55634;DHT22;41504;53.162;6.788;2024-03-02T14:24:25;12.70;93.70
55634;DHT22;41504;53.162;6.788;2024-03-02T14:26:53;12.70;93.40
55634;DHT22;41504;53.162;6.788;2024-03-02T14:29:19;12.70;94.20
55634;DHT22;41504;53.162;6.788;2024-03-02T14:31:45;12.60;94.70
55634;DHT22;41504;53.162;6.788;2024-03-02T14:34:14;12.70;94.60
55634;DHT22;41504;53.162;6.788;2024-03-02T14:36:40;12.70;94.30
55634;DHT22;41504;53.162;6.788;2024-03-02T14:39:08;12.70;94.00
55634;DHT22;41504;53.162;6.788;2024-03-02T14:41:36;12.70;94.30
55634;DHT22;41504;53.162;6.788;2024-03-02T14:44:02;12.80;94.10
55634;DHT22;41504;53.162;6.788;2024-03-02T14:46:28;12.80;94.00
55634;DHT22;41504;53.162;6.788;2024-03-02T14:48:53;12.90;93.80
55634;DHT22;41504;53.162;6.788;2024-03-02T14:51:19;12.90;94.00
55634;DHT22;41504;53.162;6.788;2024-03-02T14:53:45;12.90;93.70
55634;DHT22;41504;53.162;6.788;2024-03-02T14:56:11;12.90;93.80
55634;DHT22;41504;53.162;6.788;2024-03-02T14:58:38;12.80;94.20
55634;DHT22;41504;53.162;6.788;2024-03-02T15:01:04;12.80;93.50
55634;DHT22;41504;53.162;6.788;2024-03-02T15:03:34;12.80;93.00
55634;DHT22;41504;53.162;6.788;2024-03-02T15:06:01;12.80;93.50
55634;DHT22;41504;53.162;6.788;2024-03-02T15:08:28;12.80;93.90
55634;DHT22;41504;53.162;6.788;2024-03-02T15:10:54;12.80;94.10
55634;DHT22;41504;53.162;6.788;2024-03-02T15:13:21;12.90;93.90
55634;DHT22;41504;53.162;6.788;2024-03-02T15:15:47;12.90;93.70
55634;DHT22;41504;53.162;6.788;2024-03-02T15:18:13;12.90;93.80
55634;DHT22;41504;53.162;6.788;2024-03-02T15:20:39;12.90;93.80
55634;DHT22;41504;53.162;6.788;2024-03-02T15:23:06;12.90;94.20
55634;DHT22;41504;53.162;6.788;2024-03-02T15:25:31;12.80;94.20
55634;DHT22;41504;53.162;6.788;2024-03-02T15:27:57;12.80;94.20
55634;DHT22;41504;53.162;6.788;2024-03-02T15:30:23;12.70;94.30
55634;DHT22;41504;53.162;6.788;2024-03-02T15:32:49;12.60;94.70
55634;DHT22;41504;53.162;6.788;2024-03-02T15:35:15;12.60;94.20
55634;DHT22;41504;53.162;6.788;2024-03-02T15:37:40;12.50;94.70
55634;DHT22;41504;53.162;6.788;2024-03-02T15:40:07;12.40;95.10